Time;durP1;ratioP1;P1;durP2;ratioP2;P2;SDS_P1;SDS_P2;PMS_P1;PMS_P2;Temp;Humidity;BMP_temperature;BMP_pressure;BME280_temperature;BME280_humidity;BME280_pressure;Samples;Min_cycle;Max_cycle;Signal;HPM_P1;HPM_P2
2021/01/01 13:47:02;;;;;;;64.63;28.55;;;;;;;;;;6303521;22;20015;-93
2021/01/01 13:49:47;;;;;;;75.22;33.08;;;;;;;;;;6258127;22;20019;-90
2021/01/01 13:55:34;;;;;;;74.32;33.42;;;;;;;;;;6333174;22;20063;-90
2021/01/01 13:58:19;;;;;;;75.45;35.35;;;;;;;;;;6330078;22;20022;-91
2021/01/01 14:01:10;;;;;;;71.00;28.38;;;;;;;;;;6279698;22;20022;-91
2021/01/01 14:04:00;;;;;;;66.10;33.33;;;;;;;;;;6274557;22;20019;-91
2021/01/01 14:07:16;;;;;;;101.10;30.83;;;3.40;99.90;;;;;;6241086;22;20003;-91
2021/01/01 14:11:07;;;;;;;68.85;30.23;;;;;;;;;;6309522;22;20033;-91
2021/01/01 14:14:47;;;;;;;79.00;34.80;;;;;;;;;;6328022;22;20099;-90
2021/01/01 14:19:19;;;;;;;72.80;32.05;;;;;;;;;;6346010;22;20055;-91
2021/01/01 14:23:08;;;;;;;74.70;31.88;;;;;;;;;;6307236;22;20037;-87
2021/01/01 14:35:49;;;;;;;80.95;38.97;;;3.40;99.90;;;;;;6307724;22;20011;-91
2021/01/01 14:39:28;;;;;;;84.10;36.65;;;;;;;;;;6293705;22;20519;-91
2021/01/01 14:42:59;;;;;;;70.55;32.20;;;;;;;;;;6317220;22;20092;-92
2021/01/01 14:46:58;;;;;;;69.55;30.00;;;;;;;;;;6333834;22;20011;-91
2021/01/01 14:51:25;;;;;;;80.28;31.50;;;3.20;99.90;;;;;;6274075;22;20026;-91
2021/01/01 14:54:33;;;;;;;65.55;31.23;;;;;;;;;;6218992;23;19998;-90
2021/01/01 15:01:31;;;;;;;70.75;29.10;;;;;;;;;;6271121;22;20008;-93
2021/01/01 15:05:06;;;;;;;80.63;34.55;;;;;;;;;;6265841;22;20082;-93
2021/01/01 15:48:52;;;;;;;68.63;32.22;;;3.50;99.90;;;;;;6342279;22;20059;-93
2021/01/01 15:52:42;;;;;;;;;;;3.50;99.90;;;;;;6254792;22;20071;-92
2021/01/01 16:03:19;;;;;;;77.00;32.38;;;;;;;;;;6263163;22;20003;-93
2021/01/01 16:37:50;;;;;;;94.57;38.78;;;;;;;;;;6260944;22;20023;-91
2021/01/01 16:40:47;;;;;;;71.82;37.85;;;3.30;99.90;;;;;;6284871;22;20058;-88
2021/01/01 16:43:19;;;;;;;97.55;43.03;;;;;;;;;;6238020;22;20026;-89
2021/01/01 16:45:59;;;;;;;95.45;40.45;;;;;;;;;;6214054;22;20050;-89
2021/01/01 16:48:34;;;;;;;91.28;34.58;;;;;;;;;;6255879;22;20025;-88
2021/01/01 16:51:16;;;;;;;69.88;34.17;;;;;;;;;;6263878;22;20028;-86
2021/01/01 16:53:44;;;;;;;80.07;37.40;;;;;;;;;;6253494;22;20034;-87
2021/01/01 16:56:16;;;;;;;92.38;36.25;;;;;;;;;;6255309;22;20026;-85
2021/01/01 16:58:45;;;;;;;87.85;38.88;;;;;;;;;;6282087;22;20016;-87
2021/01/01 17:01:13;;;;;;;97.72;43.20;;;;;;;;;;6278694;22;20019;-87
2021/01/01 17:03:41;;;;;;;82.90;36.85;;;;;;;;;;6200892;22;20012;-85
2021/01/01 17:06:21;;;;;;;98.45;36.05;;;;;;;;;;6201404;22;20026;-86
2021/01/01 17:08:52;;;;;;;76.75;37.47;;;;;;;;;;6249405;22;20016;-87
2021/01/01 17:11:21;;;;;;;78.22;35.92;;;;;;;;;;6255320;22;20020;-88
2021/01/01 17:13:51;;;;;;;78.95;36.13;;;;;;;;;;6251912;22;20016;-88
2021/01/01 17:16:20;;;;;;;91.23;36.87;;;;;;;;;;6283014;22;20016;-86
2021/01/01 17:18:51;;;;;;;83.72;37.17;;;;;;;;;;6279864;22;20018;-85
2021/01/01 17:21:23;;;;;;;85.28;38.00;;;3.80;99.90;;;;;;6253386;22;20034;-86
2021/01/01 17:23:52;;;;;;;89.05;36.55;;;;;;;;;;6232023;22;20015;-86
2021/01/01 17:26:27;;;;;;;73.80;32.15;;;3.60;99.90;;;;;;6205336;22;20011;-85
2021/01/01 17:28:56;;;;;;;91.30;36.10;;;3.60;99.90;;;;;;6228919;22;20016;-85
2021/01/01 17:31:27;;;;;;;80.28;37.17;;;;;;;;;;6227174;22;20024;-85
2021/01/01 17:33:55;;;;;;;93.55;34.47;;;;;;;;;;6221463;23;20019;-84
2021/01/01 17:36:26;;;;;;;98.40;38.45;;;;;;;;;;6223418;23;20020;-86
2021/01/01 17:38:55;;;;;;;101.20;41.38;;;;;;;;;;6206145;22;20027;-86
2021/01/01 17:41:29;;;;;;;88.68;39.25;;;;;;;;;;6257381;22;20024;-86
2021/01/01 17:43:58;;;;;;;93.63;39.13;;;3.90;99.90;;;;;;6280023;22;20016;-87
2021/01/01 17:46:27;;;;;;;104.45;42.25;;;;;;;;;;6281658;22;20016;-86
2021/01/01 17:48:59;;;;;;;92.38;39.13;;;;;;;;;;6279790;22;20078;-87
2021/01/01 17:51:32;;;;;;;92.63;39.22;;;;;;;;;;6279178;22;20019;-85
2021/01/01 17:54:01;;;;;;;104.50;42.15;;;;;;;;;;6280284;22;20026;-86
2021/01/01 17:56:32;;;;;;;90.05;43.88;;;;;;;;;;6255019;22;20022;-85
2021/01/01 17:59:00;;;;;;;92.68;44.92;;;;;;;;;;6282402;22;20030;-85
2021/01/01 18:01:28;;;;;;;99.53;44.20;;;;;;;;;;6251877;22;20020;-85
2021/01/01 18:03:56;;;;;;;108.78;41.55;;;;;;;;;;6280670;22;20019;-85
2021/01/01 18:06:28;;;;;;;115.47;48.88;;;;;;;;;;6280719;22;20114;-86
2021/01/01 18:08:57;;;;;;;103.22;44.33;;;;;;;;;;6281181;22;20020;-88
2021/01/01 18:11:37;;;;;;;100.45;42.40;;;;;;;;;;6252956;22;20011;-87
2021/01/01 18:14:08;;;;;;;106.22;43.80;;;;;;;;;;6279557;22;20026;-87
2021/01/01 18:16:38;;;;;;;86.45;39.47;;;;;;;;;;6277877;22;20020;-84
2021/01/01 18:19:07;;;;;;;81.10;36.85;;;;;;;;;;6251569;22;20023;-85
2021/01/01 18:21:39;;;;;;;93.80;38.22;;;;;;;;;;6256449;22;20359;-85
2021/01/01 18:24:08;;;;;;;91.85;42.83;;;;;;;;;;6255260;22;20015;-85
2021/01/01 18:26:36;;;;;;;99.60;42.70;;;3.80;99.90;;;;;;6277138;22;20026;-88
2021/01/01 18:29:14;;;;;;;78.65;36.97;;;3.70;99.90;;;;;;6249017;22;20016;-86
2021/01/01 18:31:52;;;;;;;84.55;37.03;;;3.80;99.90;;;;;;6277195;22;20023;-85
2021/01/01 18:34:25;;;;;;;80.43;37.55;;;;;;;;;;6227765;22;20016;-86
2021/01/01 18:36:56;;;;;;;81.93;35.95;;;;;;;;;;6257823;22;20033;-85
2021/01/01 18:39:26;;;;;;;87.18;34.97;;;;;;;;;;6293100;22;20024;-85
2021/01/01 18:41:57;;;;;;;69.97;36.58;;;;;;;;;;6235462;22;20472;-85
2021/01/01 18:44:32;;;;;;;86.88;36.38;;;3.90;99.90;;;;;;6282569;22;20024;-86
2021/01/01 18:47:06;;;;;;;80.30;35.20;;;4.00;99.90;;;;;;6278286;22;20020;-85
2021/01/01 18:49:42;;;;;;;84.90;38.63;;;3.90;99.90;;;;;;6276951;22;20022;-86
2021/01/01 18:52:10;;;;;;;81.90;36.60;;;;;;;;;;6281851;22;20029;-85
2021/01/01 18:54:39;;;;;;;90.47;41.20;;;;;;;;;;6301559;22;20023;-85
2021/01/01 18:57:17;;;;;;;85.53;40.15;;;;;;;;;;6254171;22;20095;-88
2021/01/01 18:59:56;;;;;;;89.20;37.30;;;;;;;;;;6249480;22;20034;-86
2021/01/01 19:02:35;;;;;;;89.88;35.67;;;;;;;;;;6261693;22;20016;-87
2021/01/01 19:05:13;;;;;;;87.68;39.05;;;4.00;99.90;;;;;;6309274;22;20079;-85
2021/01/01 19:07:51;;;;;;;84.30;35.00;;;4.20;99.90;;;;;;6253758;22;20020;-86
2021/01/01 19:10:28;;;;;;;71.38;35.33;;;;;;;;;;6283319;22;20023;-86
2021/01/01 19:12:59;;;;;;;72.80;35.72;;;;;;;;;;6279384;22;20050;-85
2021/01/01 19:15:32;;;;;;;81.03;37.60;;;;;;;;;;6280170;22;20026;-84
2021/01/01 19:18:07;;;;;;;83.53;39.22;;;;;;;;;;6256784;22;20029;-86
2021/01/01 19:20:50;;;;;;;88.68;38.30;;;4.20;99.90;;;;;;6282546;22;20018;-86
2021/01/01 19:23:35;;;;;;;93.28;40.03;;;4.20;99.90;;;;;;6284432;22;20034;-86
2021/01/01 19:26:09;;;;;;;81.35;38.20;;;4.20;99.90;;;;;;6286282;22;20024;-86
2021/01/01 19:28:39;;;;;;;75.63;38.42;;;;;;;;;;6307555;22;20026;-86
2021/01/01 19:31:19;;;;;;;83.68;40.25;;;4.10;99.90;;;;;;6260212;22;20026;-88
2021/01/01 19:34:17;;;;;;;76.57;38.40;;;4.30;99.90;;;;;;6259719;22;20023;-86
2021/01/01 19:37:00;;;;;;;84.57;35.00;;;;;;;;;;6310430;22;20020;-85
2021/01/01 19:39:34;;;;;;;70.75;32.45;;;;;;;;;;6247671;23;20020;-88
2021/01/01 19:42:09;;;;;;;84.03;36.63;;;4.30;99.90;;;;;;6255189;23;20028;-86
2021/01/01 19:44:50;;;;;;;69.93;36.53;;;;;;;;;;6236014;23;20023;-85
2021/01/01 19:47:47;;;;;;;83.45;35.95;;;4.30;99.90;;;;;;6236631;23;20028;-85
2021/01/01 19:50:25;;;;;;;74.72;35.92;;;;;;;;;;6259128;23;20027;-85
2021/01/01 19:53:17;;;;;;;87.13;37.95;;;;;;;;;;6262973;23;20034;-86
2021/01/01 19:55:56;;;;;;;76.93;39.80;;;;;;;;;;6238253;23;20107;-85
2021/01/01 19:58:46;;;;;;;82.72;36.47;;;;;;;;;;6234182;23;20024;-85
2021/01/01 20:01:41;;;;;;;70.70;29.77;;;4.40;99.90;;;;;;6257912;23;20030;-86
2021/01/01 20:04:11;;;;;;;64.10;32.75;;;4.50;99.90;;;;;;6229996;23;20024;-85
2021/01/01 20:06:58;;;;;;;66.97;32.67;;;;;;;;;;6257738;23;20026;-86
2021/01/01 20:09:29;;;;;;;65.18;32.30;;;;;;;;;;6234394;23;20026;-86
2021/01/01 20:12:17;;;;;;;71.53;29.73;;;;;;;;;;6258614;22;20027;-84
2021/01/01 20:14:46;;;;;;;69.22;31.20;;;;;;;;;;6235942;23;20017;-86
2021/01/01 20:17:22;;;;;;;59.95;28.55;;;;;;;;;;6258137;23;20023;-85
2021/01/01 20:19:52;;;;;;;66.07;29.77;;;;;;;;;;6260036;23;20367;-85
2021/01/01 20:22:24;;;;;;;64.78;27.00;;;;;;;;;;6259490;23;20035;-85
2021/01/01 20:24:59;;;;;;;63.42;30.55;;;4.60;99.90;;;;;;6234367;23;20016;-85
2021/01/01 20:27:28;;;;;;;61.85;29.20;;;;;;;;;;6260214;23;20031;-86
2021/01/01 20:30:28;;;;;;;58.33;27.40;;;4.60;99.90;;;;;;6229667;23;20024;-86
2021/01/01 20:33:28;;;;;;;57.05;27.48;;;;;;;;;;6249333;22;20030;-85
2021/01/01 20:36:09;;;;;;;52.70;24.35;;;4.70;99.90;;;;;;6256423;23;20018;-86
2021/01/01 20:38:41;;;;;;;47.63;24.85;;;;;;;;;;6259279;22;20024;-85
2021/01/01 20:41:09;;;;;;;60.45;26.95;;;;;;;;;;6263554;22;20030;-85
2021/01/01 20:44:31;;;;;;;50.20;22.10;;;4.80;99.90;;;;;;6268997;22;20023;-84
2021/01/01 20:51:37;;;;;;;36.60;20.25;;;;;;;;;;6252333;22;20026;-84
2021/01/01 20:58:41;;;;;;;34.53;17.55;;;4.70;99.90;;;;;;6265995;22;20016;-86
2021/01/01 21:01:13;;;;;;;28.60;14.98;;;;;;;;;;6292833;22;20004;-86
2021/01/01 21:03:46;;;;;;;29.42;15.20;;;4.80;99.90;;;;;;6289956;22;20030;-85
2021/01/01 21:06:17;;;;;;;31.25;15.57;;;5.00;99.90;;;;;;6240918;22;20022;-87
2021/01/01 21:08:52;;;;;;;36.17;14.70;;;;;;;;;;6313849;22;20046;-85
2021/01/01 21:11:36;;;;;;;31.95;17.13;;;;;;;;;;6288006;22;20020;-85
2021/01/01 21:14:13;;;;;;;35.50;15.70;;;;;;;;;;6286073;22;20023;-85
2021/01/01 21:16:46;;;;;;;24.23;13.93;;;;;;;;;;6255105;22;20015;-84
2021/01/01 21:19:33;;;;;;;34.55;14.18;;;;;;;;;;6256074;22;20034;-84
2021/01/01 21:22:17;;;;;;;25.67;13.50;;;;;;;;;;6231024;22;20026;-84
2021/01/01 21:25:11;;;;;;;26.95;12.30;;;4.80;99.90;;;;;;6282680;22;20016;-84
2021/01/01 21:27:54;;;;;;;24.00;12.93;;;;;;;;;;6257284;22;20016;-85
2021/01/01 21:30:35;;;;;;;26.02;14.55;;;;;;;;;;6258706;22;20032;-85
2021/01/01 21:33:19;;;;;;;25.40;12.18;;;;;;;;;;6271208;22;20030;-85
2021/01/01 21:36:08;;;;;;;27.70;13.73;;;;;;;;;;6306203;22;20019;-86
2021/01/01 21:38:42;;;;;;;30.10;14.70;;;;;;;;;;6257763;22;20066;-86
2021/01/01 21:41:19;;;;;;;29.52;13.75;;;;;;;;;;6257604;22;20030;-85
2021/01/01 21:44:16;;;;;;;27.92;13.45;;;5.10;99.90;;;;;;6255248;22;20050;-85
2021/01/01 21:47:01;;;;;;;29.20;14.73;;;;;;;;;;6305627;22;20016;-85
2021/01/01 21:50:09;;;;;;;32.50;14.50;;;5.00;99.90;;;;;;6256934;22;20024;-84
2021/01/01 21:52:43;;;;;;;30.90;13.10;;;;;;;;;;6256472;22;20026;-85
2021/01/01 21:55:14;;;;;;;31.40;14.68;;;;;;;;;;6258944;22;20470;-84
2021/01/01 21:57:43;;;;;;;26.20;12.40;;;;;;;;;;6261143;22;20020;-85
2021/01/01 22:00:15;;;;;;;24.20;12.13;;;;;;;;;;6286330;22;20015;-85
2021/01/01 22:02:51;;;;;;;32.50;13.30;;;4.70;99.90;;;;;;6264736;22;20254;-85
2021/01/01 22:05:31;;;;;;;;;;;5.20;99.90;;;;;;6289343;22;20015;-85
2021/01/01 22:08:32;;;;;;;30.50;13.15;;;;;;;;;;6238826;22;19915;-85
2021/01/01 22:11:25;;;;;;;23.00;10.90;;;;;;;;;;6241899;22;20019;-84
2021/01/01 22:14:04;;;;;;;24.92;11.52;;;;;;;;;;6237409;22;20020;-86
2021/01/01 22:16:55;;;;;;;24.13;14.30;;;;;;;;;;6261447;22;20030;-85
2021/01/01 22:19:35;;;;;;;30.30;13.88;;;;;;;;;;6279630;22;20030;-86
2021/01/01 22:22:07;;;;;;;29.65;13.10;;;;;;;;;;6286559;22;20016;-85
2021/01/01 22:24:40;;;;;;;27.95;13.43;;;;;;;;;;6286625;22;20015;-84
2021/01/01 22:27:13;;;;;;;30.23;13.18;;;;;;;;;;6286088;22;20054;-84
2021/01/01 22:29:45;;;;;;;23.83;12.88;;;;;;;;;;6263063;22;20015;-86
2021/01/01 22:32:38;;;;;;;24.75;13.43;;;5.00;99.90;;;;;;6287364;22;20023;-85
2021/01/01 22:35:29;;;;;;;30.67;12.05;;;;;;;;;;6266876;22;20019;-86
2021/01/01 22:38:19;;;;;;;25.92;13.18;;;;;;;;;;6287952;22;20012;-85
2021/01/01 22:41:02;;;;;;;25.05;12.35;;;;;;;;;;6265150;22;20022;-85
2021/01/01 22:43:46;;;;;;;24.83;13.13;;;;;;;;;;6283702;22;20016;-85
2021/01/01 22:46:56;;;;;;;26.25;13.05;;;4.90;99.90;;;;;;6289539;22;20020;-88
2021/01/01 22:49:28;;;;;;;27.98;13.05;;;;;;;;;;6286416;22;20022;-87
2021/01/01 22:52:00;;;;;;;26.60;12.02;;;;;;;;;;6261269;22;20472;-86
2021/01/01 22:54:32;;;;;;;28.08;12.45;;;;;;;;;;6261922;22;20016;-86
2021/01/01 22:57:03;;;;;;;32.95;13.02;;;;;;;;;;6260479;22;20015;-86
2021/01/01 22:59:34;;;;;;;36.40;16.30;;;;;;;;;;6239580;22;20016;-86
2021/01/01 23:02:10;;;;;;;35.30;14.82;;;;;;;;;;6262606;22;20022;-86
2021/01/01 23:04:49;;;;;;;28.17;12.15;;;5.20;99.90;;;;;;6264538;22;20011;-87
2021/01/01 23:07:21;;;;;;;27.45;14.13;;;5.10;99.90;;;;;;6260230;22;20029;-87
2021/01/01 23:09:51;;;;;;;25.67;12.88;;;;;;;;;;6259589;22;20029;-86
2021/01/01 23:12:21;;;;;;;30.33;12.18;;;;;;;;;;6263876;22;20000;-85
2021/01/01 23:15:13;;;;;;;25.40;11.85;;;;;;;;;;6260273;22;20742;-86
2021/01/01 23:17:58;;;;;;;25.67;10.60;;;;;;;;;;6242669;22;20020;-86
2021/01/01 23:20:29;;;;;;;26.15;12.15;;;5.00;99.90;;;;;;6262377;22;20019;-88
2021/01/01 23:23:03;;;;;;;32.47;17.77;;;5.00;99.90;;;;;;6264333;22;20022;-85
2021/01/01 23:25:55;;;;;;;25.40;11.45;;;;;;;;;;6260914;22;20019;-87
2021/01/01 23:29:07;;;;;;;26.20;11.60;;;;;;;;;;6295098;22;20012;-86
2021/01/01 23:31:52;;;;;;;24.58;12.52;;;;;;;;;;6291173;22;20030;-87
2021/01/01 23:35:07;;;;;;;32.70;13.10;;;5.10;99.90;;;;;;6283621;22;20028;-87
2021/01/01 23:37:47;;;;;;;24.65;10.73;;;;;;;;;;6261882;22;20066;-87
2021/01/01 23:40:44;;;;;;;31.25;13.35;;;5.20;99.90;;;;;;6284571;22;20032;-87
2021/01/01 23:43:57;;;;;;;25.60;12.65;;;5.10;99.90;;;;;;6237309;22;20336;-85
2021/01/01 23:46:54;;;;;;;30.40;11.75;;;5.10;99.90;;;;;;6287787;22;20024;-86
2021/01/01 23:49:33;;;;;;;27.27;12.98;;;5.10;99.90;;;;;;6262988;22;20016;-87
2021/01/01 23:52:13;;;;;;;26.02;12.88;;;;;;;;;;6292141;22;20011;-87
2021/01/01 23:54:45;;;;;;;;;;;5.20;99.90;;;;;;6269232;22;20011;-89
2021/01/01 23:57:28;;;;;;;21.15;10.73;;;;;;;;;;6247976;22;19903;-88
